Kenosha Regional Airport Kenosha US
ICAO: KENW
IATA: ENW
Category: Medium
Scheduled Services: No

Elevation: 742 ft
TransAlt. 18000 ft.

Airport Communications:
MILWAUKEE APP/DEP:120.15
ASOS:127.175
ATIS:127.175
CLNC DEL:118.6
CTAF:118.6
GND:121.875
GREEN BAY RDO:109.2
TWR:118.6
UNICOM:122.95

KENW Zoom In..

If you have problems with the map follow the link
https://www.worldairports.se/pages/airport.php?
ICAO=KENW

Runways:

(A) RW 07L length 5499 ft width 100 ft
ILS 109.35 / hdg 66

(B) RW 07R length 3302 ft width 75 ft
---- / hdg 66

(C) RW 15 length 4440 ft width 100 ft
---- / hdg 146

(D) RW 25L length 3302 ft width 75 ft
---- / hdg 246

(E) RW 25R length 5499 ft width 100 ft
---- / hdg 246

(F) RW 33 length 4440 ft width 100 ft
---- / hdg 326

Location; KENW
Day. 18 / Time. 02.11 Zulu
* Altimeter: 30.31
* Temperature: -01° c. -30.2°f.
* Wind from: 140° Speed 20 kn with Gusts up to 29 kn.
Dewpoint: -02° c.
Visibility: 1 Statute Miles.
Clouds: Overcast 800 ft.
Conditions: Light Snow.Conditions: Mist.

KENW 180211Z 14020G29KT 1SM -SN BR OVC008 M01/M02 A3031 RMK AO2 PK WND 15029/0210 P0000 T10111022 $


Wind From 140°
Speed 20 kn.

 
 
jpsmedia worldairports.se 2020   terms of use